createdAt,value
2024-04-25T02:48:56.877Z,20.37
2024-04-25T02:51:27.292Z,20.52
2024-04-25T02:57:55.727Z,20.80
2024-04-25T03:00:26.150Z,20.90
2024-04-25T03:02:57.067Z,21.17
2024-04-25T03:05:28.088Z,21.09
2024-04-25T03:07:58.482Z,21.28
2024-04-25T03:10:28.813Z,21.38
2024-04-25T03:12:59.551Z,21.60
2024-04-25T03:15:30.107Z,21.70
2024-04-25T03:18:00.715Z,21.90
2024-04-25T03:20:31.610Z,22.06
2024-04-25T03:23:01.886Z,22.12
2024-04-25T03:25:32.293Z,22.56
2024-04-25T03:28:02.877Z,22.46
2024-04-25T03:30:33.191Z,22.49
2024-04-25T03:33:03.587Z,22.71
2024-04-25T03:35:34.055Z,22.72
2024-04-25T03:38:05.780Z,22.73
2024-04-25T03:40:42.767Z,23.13
2024-04-25T03:43:13.060Z,23.25
2024-04-25T03:45:43.331Z,23.59
2024-04-25T03:48:13.907Z,22.96
2024-04-25T03:50:44.548Z,23.01
2024-04-25T03:53:15.276Z,23.25
2024-04-25T03:55:45.736Z,23.34
2024-04-25T03:58:16.554Z,23.61
2024-04-25T04:00:46.953Z,23.47
2024-04-25T04:03:17.565Z,23.82
2024-04-25T04:05:48.528Z,23.67
2024-04-25T04:08:19.724Z,23.68
2024-04-25T04:10:50.213Z,23.94
2024-04-25T04:13:20.684Z,24.23
2024-04-25T04:15:51.378Z,24.05
2024-04-25T04:18:22.034Z,23.81
2024-04-25T04:20:54.632Z,23.80
2024-04-25T04:23:25.370Z,23.91
2024-04-25T04:25:56.477Z,24.14
2024-04-25T04:28:27.117Z,24.20
2024-04-25T04:30:57.839Z,23.80
2024-04-25T04:33:28.844Z,23.70
2024-04-25T04:35:59.410Z,23.82
2024-04-25T04:38:30.169Z,23.54
2024-04-25T04:41:01.481Z,23.75
2024-04-25T04:43:32.197Z,23.91
2024-04-25T04:46:05.476Z,24.20
2024-04-25T04:48:36.188Z,23.80
2024-04-25T04:51:07.058Z,24.03
2024-04-25T04:53:38.050Z,23.34
2024-04-25T04:56:10.189Z,23.84
2024-04-25T04:58:43.666Z,23.88
2024-04-25T05:01:14.559Z,23.88
2024-04-25T05:03:46.660Z,23.68
2024-04-25T05:06:17.370Z,23.59
2024-04-25T05:08:48.035Z,23.63
2024-04-25T05:11:19.073Z,23.46
2024-04-25T05:13:50.030Z,23.62
2024-04-25T05:16:20.935Z,23.33
2024-04-25T05:18:51.865Z,22.68
2024-04-25T05:21:23.351Z,22.30
2024-04-25T05:23:54.730Z,21.79
2024-04-25T05:26:25.992Z,21.81
2024-04-25T05:28:56.810Z,21.92
2024-04-25T05:31:45.450Z,22.42
2024-04-25T05:34:16.990Z,22.61
2024-04-25T05:36:48.148Z,22.40
2024-04-25T05:39:18.995Z,22.48
2024-04-25T05:41:58.370Z,22.28
2024-04-25T05:44:29.387Z,23.03
2024-04-25T05:47:01.107Z,23.43
2024-04-25T05:49:31.839Z,23.37
2024-04-25T05:52:02.395Z,23.80
2024-04-25T05:54:33.034Z,23.91
2024-04-25T05:57:03.663Z,24.83
2024-04-25T05:59:34.465Z,24.20
2024-04-25T06:02:05.995Z,24.53
2024-04-25T06:04:41.580Z,25.19
2024-04-25T06:07:12.260Z,25.24
2024-04-25T06:09:43.313Z,25.62
2024-04-25T06:12:16.683Z,26.09
2024-04-25T06:14:47.301Z,25.79
2024-04-25T06:17:18.367Z,26.28
2024-04-25T06:19:49.763Z,26.57
2024-04-25T06:22:43.000Z,26.20
2024-04-25T06:25:15.004Z,26.00
2024-04-25T06:27:48.898Z,25.65
2024-04-25T06:30:19.771Z,26.61
2024-04-25T06:32:50.452Z,26.38
2024-04-25T06:35:21.171Z,26.77
2024-04-25T06:37:52.323Z,26.76
2024-04-25T06:40:23.524Z,27.28
2024-04-25T06:42:54.160Z,27.71
2024-04-25T06:45:25.833Z,26.95
2024-04-25T06:47:56.453Z,26.57
2024-04-25T06:50:27.506Z,27.57
2024-04-25T06:52:57.993Z,27.74
2024-04-25T06:55:29.773Z,27.25
2024-04-25T06:58:00.192Z,26.98
2024-04-25T07:00:30.501Z,27.58
2024-04-25T07:03:01.081Z,27.70
2024-04-25T07:05:31.715Z,27.16
2024-04-25T07:08:02.434Z,27.71
2024-04-25T07:10:32.968Z,27.40
2024-04-25T07:13:03.426Z,27.39
2024-04-25T07:15:34.417Z,27.20
2024-04-25T07:18:09.952Z,27.35
2024-04-25T07:20:40.779Z,27.42
2024-04-25T07:23:29.301Z,27.24
2024-04-25T07:26:00.496Z,27.09
2024-04-25T07:28:32.993Z,27.44
2024-04-25T07:31:04.895Z,27.85
2024-04-25T07:33:35.909Z,28.15
2024-04-25T07:36:09.377Z,26.97
2024-04-25T07:38:39.997Z,26.64
2024-04-25T07:41:10.679Z,27.57
2024-04-25T07:43:41.107Z,28.08
2024-04-25T07:46:12.667Z,27.89
2024-04-25T07:48:43.643Z,26.88
2024-04-25T07:51:14.094Z,27.19
2024-04-25T07:53:44.625Z,28.34
2024-04-25T07:56:15.165Z,27.12
2024-04-25T07:58:46.175Z,27.08
2024-04-25T08:01:22.599Z,26.56
2024-04-25T08:03:53.946Z,27.04
2024-04-25T08:06:24.642Z,27.31
2024-04-25T08:08:55.343Z,27.75
2024-04-25T08:11:26.119Z,27.15
2024-04-25T08:13:59.530Z,27.62
2024-04-25T08:16:32.954Z,28.15
2024-04-25T08:19:03.654Z,27.34
2024-04-25T08:21:34.447Z,27.71
2024-04-25T08:24:05.154Z,27.33
2024-04-25T08:26:36.661Z,27.39
2024-04-25T08:29:07.022Z,26.39
2024-04-25T08:31:40.485Z,27.17
2024-04-25T08:34:11.286Z,28.18
2024-04-25T08:36:43.118Z,29.09
2024-04-25T08:39:13.745Z,29.46
2024-04-25T08:41:46.866Z,27.97
2024-04-25T08:44:20.384Z,28.41
2024-04-25T08:46:52.249Z,27.71
2024-04-25T08:49:23.842Z,27.98
2024-04-25T08:51:57.196Z,28.24
2024-04-25T08:54:28.132Z,27.86
2024-04-25T08:56:59.491Z,27.22
2024-04-25T08:59:30.230Z,27.07
2024-04-25T09:02:02.591Z,28.10
2024-04-25T09:04:34.758Z,28.58
2024-04-25T09:07:15.276Z,28.36
2024-04-25T09:09:45.841Z,28.38
2024-04-25T09:12:16.450Z,28.88
2024-04-25T09:14:47.198Z,28.29
2024-04-25T09:17:21.209Z,27.80
2024-04-25T09:19:51.800Z,27.30
2024-04-25T09:22:22.481Z,27.27
2024-04-25T09:24:54.998Z,27.45
2024-04-25T09:27:25.833Z,28.03
2024-04-25T09:29:57.476Z,27.76
2024-04-25T09:32:28.220Z,28.30
2024-04-25T09:35:02.067Z,28.16
2024-04-25T09:37:35.771Z,28.74
2024-04-25T09:40:06.917Z,28.90
2024-04-25T09:42:41.369Z,28.41
2024-04-25T09:45:17.377Z,27.85
2024-04-25T09:47:55.604Z,27.91
2024-04-25T09:50:32.204Z,28.33
2024-04-25T09:53:18.089Z,27.79
2024-04-25T09:55:49.677Z,27.68
2024-04-25T09:58:50.326Z,27.38
2024-04-25T10:01:21.762Z,27.21
2024-04-25T10:03:53.109Z,27.29
2024-04-25T10:06:24.507Z,26.86
2024-04-25T10:08:56.279Z,25.95
2024-04-25T10:11:32.591Z,26.30
2024-04-25T10:14:03.064Z,26.85
2024-04-25T10:16:34.044Z,26.39
2024-04-25T10:19:04.524Z,25.71
2024-04-25T10:21:35.410Z,26.34
2024-04-25T10:24:11.869Z,25.06
2024-04-25T10:26:50.362Z,25.34
2024-04-25T10:29:20.967Z,25.27
2024-04-25T10:31:51.763Z,25.23
2024-04-25T10:34:22.421Z,25.39
2024-04-25T10:36:54.461Z,24.58
2024-04-25T10:39:25.048Z,24.44
2024-04-25T10:41:55.746Z,24.09
2024-04-25T10:44:27.894Z,23.49
2024-04-25T10:46:58.518Z,23.28
2024-04-25T10:49:29.173Z,23.19
2024-04-25T10:52:00.113Z,23.30
2024-04-25T10:54:30.557Z,23.06
2024-04-25T10:57:01.443Z,23.05
2024-04-25T10:59:36.540Z,23.08
2024-04-25T11:02:10.245Z,22.48
2024-04-25T11:04:44.966Z,22.17
2024-04-25T11:07:17.012Z,22.11
2024-04-25T11:09:47.404Z,21.63
2024-04-25T11:12:19.717Z,21.77
2024-04-25T11:14:50.456Z,21.60
2024-04-25T11:17:21.100Z,21.36
2024-04-25T11:19:51.839Z,21.30
2024-04-25T11:22:30.687Z,21.15
2024-04-25T11:25:24.004Z,21.13
2024-04-25T11:27:55.289Z,21.10
2024-04-25T11:30:28.200Z,20.74
2024-04-25T11:33:03.898Z,20.87
2024-04-25T11:35:35.571Z,20.79
2024-04-25T11:38:05.910Z,20.72
2024-04-25T11:40:40.081Z,20.48
2024-04-25T11:43:10.695Z,20.45
2024-04-25T11:45:41.579Z,20.37
2024-04-25T11:48:13.814Z,20.38
2024-04-25T11:50:44.535Z,20.18
2024-04-25T11:53:14.891Z,20.22
2024-04-25T11:55:45.758Z,20.20
2024-04-25T11:58:16.426Z,19.85
2024-04-25T12:00:50.861Z,19.56
2024-04-25T12:03:21.389Z,19.54
2024-04-25T12:05:52.901Z,19.48
2024-04-25T12:08:23.385Z,19.26
2024-04-25T12:10:59.134Z,19.25
2024-04-25T12:13:29.731Z,19.12
2024-04-25T12:16:00.109Z,18.84
2024-04-25T12:18:32.189Z,18.80
2024-04-25T12:21:04.162Z,18.57
2024-04-25T12:23:37.708Z,18.48
2024-04-25T12:26:08.092Z,18.16
2024-04-25T12:28:38.676Z,18.05
2024-04-25T12:31:10.683Z,17.93
2024-04-25T12:33:42.866Z,17.84
2024-04-25T12:36:13.391Z,17.51
2024-04-25T12:38:44.970Z,17.26
2024-04-25T12:41:16.043Z,17.27
2024-04-25T12:43:48.775Z,17.15
2024-04-25T12:46:19.691Z,17.07
2024-04-25T12:48:53.040Z,16.83
2024-04-25T12:51:25.151Z,16.75
2024-04-25T12:53:56.154Z,16.58
2024-04-25T12:56:28.954Z,16.60
2024-04-25T12:59:00.486Z,16.32
2024-04-25T13:01:31.144Z,16.22
2024-04-25T13:04:02.464Z,15.98
2024-04-25T13:06:33.083Z,16.13
2024-04-25T13:09:03.516Z,15.99
2024-04-25T13:11:34.556Z,15.85
2024-04-25T13:14:08.653Z,15.75
2024-04-25T13:16:40.305Z,15.62
2024-04-25T13:19:12.261Z,15.59
2024-04-25T13:21:45.127Z,15.53
2024-04-25T13:24:17.109Z,15.40
2024-04-25T13:26:49.675Z,15.28
2024-04-25T13:29:20.784Z,15.25
2024-04-25T13:31:54.236Z,15.14
2024-04-25T13:34:27.268Z,14.94
2024-04-25T13:36:59.531Z,14.86
2024-04-25T13:39:29.915Z,14.77
2024-04-25T13:42:00.278Z,14.66
2024-04-25T13:44:31.132Z,14.50
2024-04-25T13:47:02.222Z,14.54
2024-04-25T13:49:32.977Z,14.34
2024-04-25T13:52:03.899Z,14.35
2024-04-25T13:54:37.130Z,14.35
2024-04-25T13:57:08.793Z,14.34
